Terminal Aerodrome Forecast
Issued by NWS

Home | Current Version | Previous Version | Text Only | Print | Product List | Glossary On
Versions: 1 2 3 4 5 6 7 8 9 10 11 12 13 14 15 16 17 18 19 20 21 22 23 24
611
FTUS43 KIND 211720
TAFHUF
TAF
KHUF 211720Z 2118/2218 36009KT P6SM VCSH OVC010
      TEMPO 2118/2119 6SM -RA OVC008
     FM212100 02010KT P6SM VCSH OVC025
     FM220300 04010KT P6SM VCSH OVC015
     FM220500 04011KT 6SM -RA OVC020
     FM220700 05011KT 6SM -RA OVC009
     FM221400 06011KT P6SM OVC015=

USA.gov is the U.S. government's official web portal to all federal, state and local government web resources and services.